• Join FlightAware (Why Join?)
  • Login
  • US Flag 
11:50PM EDT


 

Airport Tracker/Info


-or-


 

Live Flight TrackerFlight Track Log ✈ N10JY ✈ 08-Jun-2013 ✈ KELM - KROC

Flight Track Log - Related Links

Times and Time Zones

All times are in EDT time to prevent confusion due to time zone crossing. See the N10JY flight status page for this flight to view local times or setup timezone preferences in your user account.

Time Position Orientation Groundspeed Altitude Reporting Facility
EDT Latitude Longitude Course Direction KTS MPH feet Rate Location/Type
05:05PM 42.1772 -76.9858 North 360 414 4,000  Level New York Center
05:07PM 42.2919 -77.0686 332° Northwest 291 335 4,100 2,100 Climbing Cleveland Center
05:08PM 42.3558 -77.1128 333° Northwest 271 312 10,000 2,220 Climbing Cleveland Center
05:09PM 42.4200 -77.1628 330° Northwest 263 303 8,600 -180 Descending Cleveland Center
05:10PM 42.3841 -77.0797 331° Northwest  Level FlightAware Approximate
05:10PM 42.4647 -77.1997 329° Northwest 296 341 9,800  Level Cleveland Center
05:10PM 42.4967 -77.2178 337° Northwest 280 322 9,900 240 Climbing Cleveland Center
05:11PM 42.4468 -77.1167 North  Level FlightAware Approximate
05:11PM 42.5692 -77.2731 331° Northwest 364 419 10,100  Level Cleveland Center
05:11PM 42.5839 -77.2836 332° Northwest 321 369 10,000 -120 Descending Cleveland Center
05:12PM 42.6753 -77.3381 336° Northwest 349 402 10,000 -720 Level Cleveland Center
05:13PM 42.7550 -77.3567 350° North 292 336 8,700 -1,860 Descending Cleveland Center
05:14PM 42.8261 -77.3728 351° North 277 319 6,700 -2,100 Descending Cleveland Center
05:15PM 42.9014 -77.3803 356° North 266 306 4,700 -1,260 Descending Cleveland Center
05:16PM 42.9792 -77.3961 352° North 211 243 4,100 -720 Descending Cleveland Center
05:17PM 43.0336 -77.4075 351° North 198 228 3,300 -840 Descending Cleveland Center
05:18PM 43.0839 -77.4222 348° North 188 216 2,500 -360 Descending Cleveland Center
05:19PM 43.1225 -77.4542 329° Northwest 178 205 2,600  Climbing Cleveland Center
05:20PM 43.1264 -77.5225 274° West 175 201 2,500 -480 Descending Cleveland Center
05:21PM 43.1236 -77.5822 266° West 135 155 1,700 -720 Descending Cleveland Center
05:22PM 43.1228 -77.6336 269° West 131 151 1,100 -600 Descending Cleveland Center